Time;durP1;ratioP1;P1;durP2;ratioP2;P2;SDS_P1;SDS_P2;PMS_P1;PMS_P2;Temp;Humidity;BMP_temperature;BMP_pressure;BME280_temperature;BME280_humidity;BME280_pressure;Samples;Min_cycle;Max_cycle;Signal;HPM_P1;HPM_P2
2021/06/29 00:01:21;;;;;;;15.63;6.25;;;18.30;99.90;;;;;;5013925;28;20112;-90
2021/06/29 00:03:48;;;;;;;14.02;6.10;;;18.20;99.90;;;;;;5014778;28;20371;-89
2021/06/29 00:06:15;;;;;;;16.55;6.35;;;18.20;99.90;;;;;;5016454;28;20168;-90
2021/06/29 00:08:41;;;;;;;17.92;5.97;;;18.20;99.90;;;;;;5052002;28;20038;-91
2021/06/29 00:11:08;;;;;;;17.02;5.68;;;18.20;99.90;;;;;;5018066;28;20402;-89
2021/06/29 00:13:38;;;;;;;14.88;5.80;;;18.10;99.90;;;;;;5018413;28;20033;-90
2021/06/29 00:16:05;;;;;;;17.30;6.25;;;18.10;99.90;;;;;;5017864;28;20060;-90
2021/06/29 00:18:31;;;;;;;17.25;6.13;;;18.00;99.90;;;;;;5001518;28;20064;-90
2021/06/29 00:20:58;;;;;;;17.17;6.25;;;18.00;99.90;;;;;;5002060;28;20429;-90
2021/06/29 00:23:25;;;;;;;18.80;5.93;;;18.00;99.90;;;;;;5033923;28;20065;-90
2021/06/29 00:25:52;;;;;;;19.55;6.55;;;17.90;99.90;;;;;;5001648;28;20038;-89
2021/06/29 00:28:19;;;;;;;20.50;5.78;;;17.80;99.90;;;;;;5017552;28;20496;-90
2021/06/29 00:30:45;;;;;;;17.33;6.30;;;17.90;99.90;;;;;;5001670;28;20045;-91
2021/06/29 00:33:12;;;;;;;22.65;6.28;;;17.90;99.90;;;;;;5017956;28;20578;-90
2021/06/29 00:35:39;;;;;;;23.27;6.72;;;17.90;99.90;;;;;;4985604;28;20049;-90
2021/06/29 00:38:06;;;;;;;16.13;6.25;;;17.90;99.90;;;;;;5002073;28;20096;-90
2021/06/29 00:40:33;;;;;;;19.65;6.80;;;17.90;99.90;;;;;;5000910;28;20052;-90
2021/06/29 00:43:00;;;;;;;21.90;5.57;;;17.90;99.90;;;;;;5017849;28;20120;-90
2021/06/29 00:45:27;;;;;;;17.92;5.90;;;17.90;99.90;;;;;;5001452;28;20140;-90
2021/06/29 00:47:54;;;;;;;21.20;5.97;;;17.90;99.90;;;;;;5017634;28;20141;-91
2021/06/29 00:50:21;;;;;;;16.27;6.07;;;17.90;99.90;;;;;;5050578;28;20129;-89
2021/06/29 00:52:47;;;;;;;16.77;6.15;;;17.90;99.90;;;;;;5017492;28;20088;-91
2021/06/29 00:55:14;;;;;;;13.93;5.43;;;17.90;99.90;;;;;;5017347;28;20065;-90
2021/06/29 00:57:43;;;;;;;19.73;6.32;;;17.90;99.90;;;;;;5033235;28;20044;-90
2021/06/29 01:00:12;;;;;;;16.58;5.85;;;17.90;99.90;;;;;;5033438;28;20037;-91
2021/06/29 01:02:39;;;;;;;15.77;5.82;;;17.90;99.90;;;;;;5016832;28;20060;-90
2021/06/29 01:05:06;;;;;;;16.42;5.63;;;17.90;99.90;;;;;;5017233;28;20117;-90
2021/06/29 01:07:33;;;;;;;17.17;5.88;;;17.80;99.90;;;;;;5032555;28;20038;-90
2021/06/29 01:10:05;;;;;;;16.80;6.13;;;17.80;99.90;;;;;;5016969;28;20037;-90
2021/06/29 01:12:33;;;;;;;12.07;5.60;;;17.70;99.90;;;;;;5032694;28;20493;-90
2021/06/29 01:15:01;;;;;;;14.43;5.93;;;17.70;99.90;;;;;;5016716;28;20136;-91
2021/06/29 01:17:30;;;;;;;13.70;6.22;;;17.70;99.90;;;;;;5031832;28;20081;-90
2021/06/29 01:19:57;;;;;;;14.88;5.50;;;17.70;99.90;;;;;;5016808;28;20469;-90
2021/06/29 01:22:26;;;;;;;15.05;5.72;;;17.70;99.90;;;;;;5016017;28;20061;-88
2021/06/29 01:24:55;;;;;;;17.88;6.03;;;17.60;99.90;;;;;;5017244;28;20044;-91
2021/06/29 01:32:41;;;;;;;16.10;5.90;;;17.50;99.90;;;;;;5001781;28;20048;-91
2021/06/29 01:35:09;;;;;;;16.58;6.35;;;17.40;99.90;;;;;;5016593;28;20045;-91
2021/06/29 01:37:36;;;;;;;20.58;6.28;;;17.40;99.90;;;;;;5016094;28;20107;-91
2021/06/29 01:42:32;;;;;;;15.50;6.32;;;17.40;99.90;;;;;;5032615;28;20379;-90
2021/06/29 01:45:00;;;;;;;17.25;6.22;;;17.40;99.90;;;;;;5016220;28;20061;-91
2021/06/29 01:47:40;;;;;;;17.63;6.32;;;17.40;99.90;;;;;;5031790;28;20116;-89
2021/06/29 01:50:17;;;;;;;20.02;6.20;;;17.40;99.90;;;;;;5017999;28;20046;-91
2021/06/29 01:52:45;;;;;;;18.20;6.72;;;17.40;99.90;;;;;;5015990;28;20088;-91
2021/06/29 01:55:12;;;;;;;21.55;6.18;;;17.50;99.90;;;;;;5016241;28;20033;-92
2021/06/29 01:57:42;;;;;;;17.73;6.70;;;17.40;99.90;;;;;;5032033;28;20038;-91
2021/06/29 02:00:11;;;;;;;18.33;7.32;;;17.40;99.90;;;;;;5032315;28;20045;-90
2021/06/29 02:02:37;;;;;;;17.27;7.28;;;17.40;99.90;;;;;;4999841;28;20371;-91
2021/06/29 02:05:05;;;;;;;19.80;6.57;;;17.40;99.90;;;;;;5016196;28;20049;-90
2021/06/29 02:07:32;;;;;;;17.40;7.10;;;17.40;99.90;;;;;;5031641;28;20041;-89
2021/06/29 02:09:58;;;;;;;19.90;7.07;;;17.40;99.90;;;;;;5015780;28;20530;-90
2021/06/29 02:12:25;;;;;;;18.08;6.57;;;17.40;99.90;;;;;;5015933;28;20038;-90
2021/06/29 02:14:52;;;;;;;20.40;7.65;;;17.40;99.90;;;;;;4999166;28;20041;-91
2021/06/29 02:17:19;;;;;;;19.08;7.22;;;17.40;99.90;;;;;;5015822;28;20252;-91
2021/06/29 02:19:46;;;;;;;16.77;7.13;;;17.30;99.90;;;;;;5015049;28;20045;-90
2021/06/29 02:22:12;;;;;;;15.35;6.70;;;17.30;99.90;;;;;;4999694;28;20478;-90
2021/06/29 02:24:39;;;;;;;16.13;6.88;;;17.30;99.90;;;;;;4999281;28;20368;-91
2021/06/29 02:27:06;;;;;;;22.08;7.47;;;17.30;99.90;;;;;;4999787;28;20107;-91
2021/06/29 02:29:34;;;;;;;22.02;7.20;;;17.30;99.90;;;;;;5015468;28;20426;-89
2021/06/29 02:32:01;;;;;;;24.40;7.53;;;17.30;99.90;;;;;;5015513;28;20048;-90
2021/06/29 02:34:28;;;;;;;23.02;7.28;;;17.30;99.90;;;;;;4999526;28;20093;-91
2021/06/29 02:36:55;;;;;;;20.80;7.75;;;17.20;99.90;;;;;;4998978;28;20041;-90
2021/06/29 02:39:21;;;;;;;23.20;7.07;;;17.20;99.90;;;;;;5031650;28;20049;-90
2021/06/29 02:41:48;;;;;;;19.08;6.93;;;17.20;99.90;;;;;;5011507;28;20096;-91
2021/06/29 02:44:16;;;;;;;16.30;7.10;;;17.10;99.90;;;;;;4995790;28;20048;-89
2021/06/29 02:46:42;;;;;;;20.52;7.50;;;17.10;99.90;;;;;;4995212;28;20038;-88
2021/06/29 02:49:09;;;;;;;19.30;6.97;;;17.10;99.90;;;;;;4995615;28;20034;-89
2021/06/29 02:51:36;;;;;;;17.55;7.00;;;17.10;99.90;;;;;;4995139;28;20038;-88
2021/06/29 02:54:03;;;;;;;19.67;7.68;;;17.10;99.90;;;;;;4995790;28;20085;-89
2021/06/29 02:56:42;;;;;;;19.00;7.60;;;17.10;99.90;;;;;;5011317;28;20030;-88
2021/06/29 02:59:11;;;;;;;21.15;8.18;;;17.00;99.90;;;;;;4996630;28;20403;-88
2021/06/29 03:01:39;;;;;;;19.85;7.75;;;17.00;99.90;;;;;;5010557;28;20034;-88
2021/06/29 03:04:06;;;;;;;21.98;7.18;;;17.00;99.90;;;;;;5011243;28;20073;-89
2021/06/29 03:06:33;;;;;;;21.35;7.45;;;16.90;99.90;;;;;;5028409;28;20038;-89
2021/06/29 03:09:02;;;;;;;25.10;7.70;;;16.90;99.90;;;;;;4994761;28;20483;-90
2021/06/29 03:11:29;;;;;;;20.67;7.40;;;16.90;99.90;;;;;;5011163;28;20146;-89
2021/06/29 03:13:56;;;;;;;19.60;7.78;;;16.90;99.90;;;;;;4994620;28;20510;-90
2021/06/29 03:16:23;;;;;;;22.88;7.05;;;16.90;99.90;;;;;;4994930;28;20034;-89
2021/06/29 03:18:50;;;;;;;19.65;6.60;;;16.90;99.90;;;;;;4994651;28;20553;-91
2021/06/29 03:21:17;;;;;;;17.90;7.35;;;16.90;99.90;;;;;;5010904;28;20475;-91
2021/06/29 03:23:44;;;;;;;23.58;7.90;;;17.00;99.90;;;;;;4994427;28;20113;-91
2021/06/29 03:26:11;;;;;;;21.95;7.75;;;17.00;99.90;;;;;;4994515;28;20057;-90
2021/06/29 03:28:38;;;;;;;25.73;7.70;;;17.00;99.90;;;;;;4994773;28;20533;-89
2021/06/29 03:31:05;;;;;;;20.38;7.93;;;17.00;99.90;;;;;;4995598;28;20041;-90
2021/06/29 03:33:31;;;;;;;20.25;7.38;;;17.00;99.90;;;;;;5011838;28;20045;-89
2021/06/29 03:35:58;;;;;;;26.08;7.60;;;16.90;99.90;;;;;;4995199;28;20046;-90
2021/06/29 03:38:25;;;;;;;25.25;7.60;;;16.90;99.90;;;;;;5011297;28;20061;-89
2021/06/29 03:40:52;;;;;;;21.10;7.25;;;17.00;99.90;;;;;;4996046;28;20050;-90
2021/06/29 03:43:19;;;;;;;18.80;7.40;;;17.00;99.90;;;;;;5015092;28;20038;-90
2021/06/29 03:45:47;;;;;;;25.05;7.60;;;17.00;99.90;;;;;;5014813;28;20053;-91
2021/06/29 03:48:14;;;;;;;19.77;7.20;;;17.00;99.90;;;;;;5015268;28;20044;-90
2021/06/29 03:50:41;;;;;;;24.10;7.50;;;16.90;99.90;;;;;;4998463;28;20038;-90
2021/06/29 03:53:08;;;;;;;20.15;7.43;;;17.00;99.90;;;;;;5032022;28;20061;-92
2021/06/29 03:55:35;;;;;;;18.38;6.80;;;17.00;99.90;;;;;;4999132;28;20034;-91
2021/06/29 03:58:02;;;;;;;21.67;7.43;;;17.00;99.90;;;;;;4982796;28;20045;-91
2021/06/29 04:00:29;;;;;;;21.70;7.32;;;17.10;99.90;;;;;;4998986;28;20161;-90
2021/06/29 04:02:56;;;;;;;25.40;7.72;;;17.10;99.90;;;;;;4982486;28;20038;-90
2021/06/29 04:05:23;;;;;;;24.67;7.60;;;17.10;99.90;;;;;;4982714;28;20042;-90
2021/06/29 04:07:50;;;;;;;24.20;8.18;;;17.00;99.90;;;;;;4982419;28;20035;-90
2021/06/29 04:10:17;;;;;;;27.88;7.80;;;17.10;99.90;;;;;;4999065;28;20398;-91
2021/06/29 04:12:44;;;;;;;19.60;7.35;;;17.10;99.90;;;;;;4982274;28;20039;-90
2021/06/29 04:15:12;;;;;;;22.35;8.20;;;17.00;99.90;;;;;;4982533;28;20069;-90
2021/06/29 04:17:39;;;;;;;20.77;7.38;;;17.10;99.90;;;;;;5014519;28;20041;-91
2021/06/29 04:20:08;;;;;;;25.90;7.40;;;17.10;99.90;;;;;;4997959;28;20034;-91
2021/06/29 04:22:35;;;;;;;24.15;7.32;;;17.00;99.90;;;;;;5014288;28;20125;-91
2021/06/29 04:25:04;;;;;;;30.85;8.40;;;17.00;99.90;;;;;;4997856;28;20089;-90
2021/06/29 04:27:31;;;;;;;27.10;7.88;;;17.10;99.90;;;;;;5014314;28;20035;-91
2021/06/29 04:29:58;;;;;;;28.08;7.78;;;17.10;99.90;;;;;;4997864;28;20066;-90
2021/06/29 04:32:25;;;;;;;21.13;7.28;;;17.10;99.90;;;;;;4998129;28;20038;-90
2021/06/29 04:34:52;;;;;;;20.65;7.72;;;17.10;99.90;;;;;;5031298;28;20049;-90
2021/06/29 04:37:19;;;;;;;19.95;7.60;;;17.10;99.90;;;;;;4998258;28;20478;-91
2021/06/29 04:39:46;;;;;;;25.85;8.60;;;17.10;99.90;;;;;;4997644;28;20038;-89
2021/06/29 04:42:13;;;;;;;25.65;7.80;;;17.00;99.90;;;;;;4997938;28;20045;-89
2021/06/29 04:44:40;;;;;;;24.58;7.93;;;17.00;99.90;;;;;;4998098;28;20060;-91
2021/06/29 04:47:08;;;;;;;23.15;7.93;;;17.00;99.90;;;;;;4997918;28;20053;-91
2021/06/29 04:49:37;;;;;;;21.75;8.07;;;17.10;99.90;;;;;;5014041;28;20117;-91
2021/06/29 04:52:05;;;;;;;23.20;8.23;;;17.10;99.90;;;;;;4996536;28;20398;-90
2021/06/29 04:54:32;;;;;;;22.27;8.13;;;17.00;99.90;;;;;;4997792;28;20038;-91
2021/06/29 04:56:59;;;;;;;22.25;7.40;;;17.00;99.90;;;;;;4965913;28;20042;-90
2021/06/29 04:59:26;;;;;;;21.63;8.40;;;17.10;99.90;;;;;;5031333;28;20030;-90
2021/06/29 05:01:52;;;;;;;22.73;8.50;;;17.10;99.90;;;;;;4997124;28;20117;-89
2021/06/29 05:04:19;;;;;;;27.13;8.05;;;17.10;99.90;;;;;;4997823;28;20034;-90
2021/06/29 05:06:46;;;;;;;27.10;8.82;;;17.10;99.90;;;;;;5005752;28;20116;-90
2021/06/29 05:09:13;;;;;;;19.73;8.18;;;17.10;99.90;;;;;;5032242;28;20049;-91
2021/06/29 05:11:39;;;;;;;31.10;9.30;;;17.10;99.90;;;;;;5016389;28;20482;-90
2021/06/29 05:14:08;;;;;;;25.02;9.05;;;17.10;99.90;;;;;;5030951;28;20048;-89
2021/06/29 05:16:35;;;;;;;25.00;8.80;;;17.20;99.90;;;;;;5032735;28;20049;-89
2021/06/29 05:19:02;;;;;;;30.35;8.88;;;17.20;99.90;;;;;;5016024;28;20398;-90
2021/06/29 05:21:29;;;;;;;25.55;8.60;;;17.20;99.90;;;;;;5033421;28;20038;-90
2021/06/29 05:23:55;;;;;;;26.63;8.57;;;17.30;99.90;;;;;;5032429;28;20085;-90
2021/06/29 05:26:23;;;;;;;31.65;8.65;;;17.20;99.90;;;;;;5016732;28;20042;-90
2021/06/29 05:28:50;;;;;;;24.23;9.00;;;17.30;99.90;;;;;;5017792;28;20045;-89
2021/06/29 05:31:17;;;;;;;23.98;8.98;;;17.30;99.90;;;;;;5019036;28;20049;-89
2021/06/29 05:33:44;;;;;;;30.42;8.85;;;17.40;99.90;;;;;;4997502;28;20090;-90
2021/06/29 05:36:10;;;;;;;32.55;9.57;;;17.40;99.90;;;;;;4996758;28;20112;-91
2021/06/29 05:38:37;;;;;;;33.78;9.07;;;17.40;99.90;;;;;;5012997;28;20034;-89
2021/06/29 05:41:04;;;;;;;26.92;8.90;;;17.50;99.90;;;;;;5007455;28;20133;-90
2021/06/29 05:43:31;;;;;;;30.00;9.23;;;17.50;99.90;;;;;;5016567;28;20046;-90
2021/06/29 05:45:59;;;;;;;32.72;10.00;;;17.50;99.90;;;;;;5032232;28;20073;-90
2021/06/29 05:48:32;;;;;;;31.88;9.40;;;17.50;99.90;;;;;;5017062;28;20096;-90
2021/06/29 05:50:59;;;;;;;26.38;9.30;;;17.60;99.90;;;;;;5016798;28;20033;-89
2021/06/29 05:53:27;;;;;;;30.83;10.40;;;17.60;99.90;;;;;;5016966;28;20042;-90
2021/06/29 05:55:54;;;;;;;29.25;9.50;;;17.60;99.90;;;;;;5017195;28;20038;-91
2021/06/29 05:58:21;;;;;;;35.35;9.25;;;17.70;99.90;;;;;;5016603;28;20038;-90
2021/06/29 06:00:48;;;;;;;29.67;9.93;;;17.70;99.90;;;;;;5015882;28;20033;-90
2021/06/29 06:03:15;;;;;;;26.63;9.10;;;17.80;99.90;;;;;;5015118;28;20048;-90
2021/06/29 06:05:43;;;;;;;35.33;9.73;;;17.70;99.90;;;;;;5000282;28;20046;-90
2021/06/29 06:08:10;;;;;;;34.22;9.40;;;17.80;99.90;;;;;;5015710;28;20095;-89
2021/06/29 06:10:37;;;;;;;33.30;10.18;;;17.80;99.90;;;;;;5015743;28;20038;-89
2021/06/29 06:13:03;;;;;;;34.05;9.70;;;17.80;99.90;;;;;;5015482;28;20042;-88
2021/06/29 06:15:37;;;;;;;35.13;10.25;;;17.90;99.90;;;;;;5017583;28;20517;-89
2021/06/29 06:18:05;;;;;;;38.20;11.10;;;17.90;99.90;;;;;;5031700;28;20034;-89
2021/06/29 06:20:37;;;;;;;41.42;10.60;;;18.00;99.90;;;;;;5049250;28;20168;-88
2021/06/29 06:23:05;;;;;;;37.60;11.38;;;18.00;99.90;;;;;;5031236;28;20489;-87
2021/06/29 06:25:33;;;;;;;39.92;10.93;;;18.00;99.90;;;;;;4999633;28;20038;-89
2021/06/29 06:28:01;;;;;;;50.05;12.10;;;18.10;99.90;;;;;;5015020;28;20077;-89
2021/06/29 06:30:29;;;;;;;48.13;12.07;;;18.10;99.90;;;;;;5048084;28;20478;-91
2021/06/29 06:32:56;;;;;;;49.85;13.02;;;18.10;99.90;;;;;;5035280;28;20040;-88
2021/06/29 06:35:22;;;;;;;38.85;11.68;;;18.20;99.90;;;;;;5030843;28;20046;-90
2021/06/29 06:37:50;;;;;;;49.90;12.98;;;18.20;99.90;;;;;;5031870;28;20037;-91
2021/06/29 06:40:17;;;;;;;43.95;12.63;;;18.30;99.90;;;;;;5030537;28;20042;-89
2021/06/29 06:42:46;;;;;;;44.80;13.93;;;18.40;99.90;;;;;;5014623;28;20037;-88
2021/06/29 06:45:13;;;;;;;40.80;12.15;;;18.40;99.90;;;;;;5031094;28;20069;-88
2021/06/29 06:47:40;;;;;;;37.72;13.00;;;18.50;99.90;;;;;;5015329;28;20034;-91
2021/06/29 06:50:09;;;;;;;43.42;13.02;;;18.60;99.90;;;;;;5031141;28;20132;-89
2021/06/29 06:52:36;;;;;;;36.28;13.95;;;18.60;99.90;;;;;;5031279;28;20034;-89
2021/06/29 06:55:05;;;;;;;40.70;13.90;;;18.70;99.90;;;;;;5014719;28;20042;-87
2021/06/29 06:57:31;;;;;;;31.23;12.85;;;18.80;99.90;;;;;;5015209;28;20041;-90
2021/06/29 06:59:58;;;;;;;36.30;13.73;;;18.80;99.90;;;;;;5015341;28;20042;-91
2021/06/29 07:02:26;;;;;;;34.15;13.40;;;18.90;99.90;;;;;;5031061;28;20069;-90
2021/06/29 07:04:53;;;;;;;41.75;13.07;;;18.90;99.90;;;;;;5046685;28;20030;-80
2021/06/29 07:07:20;;;;;;;40.17;13.50;;;19.00;99.90;;;;;;5029729;28;20050;-81
2021/06/29 07:09:48;;;;;;;39.75;12.77;;;19.10;99.90;;;;;;5047598;28;20041;-84
2021/06/29 07:12:14;;;;;;;32.92;12.77;;;19.10;99.90;;;;;;5013568;28;20038;-79
2021/06/29 07:14:41;;;;;;;30.00;12.35;;;19.10;99.90;;;;;;5029782;28;20121;-82
2021/06/29 07:17:08;;;;;;;32.47;12.43;;;19.20;99.90;;;;;;5033647;28;20049;-89
2021/06/29 07:19:35;;;;;;;28.13;12.32;;;19.20;99.90;;;;;;5017299;28;20057;-80
2021/06/29 07:22:02;;;;;;;33.80;11.80;;;19.30;99.90;;;;;;5017782;28;20038;-82
2021/06/29 07:24:29;;;;;;;27.42;12.90;;;19.40;99.90;;;;;;5033158;28;20044;-75
2021/06/29 07:26:56;;;;;;;28.73;13.20;;;19.40;99.90;;;;;;5033520;28;20048;-77
2021/06/29 07:29:23;;;;;;;28.63;12.55;;;19.50;99.90;;;;;;5016734;28;20045;-75
2021/06/29 07:31:50;;;;;;;28.60;12.68;;;19.50;99.90;;;;;;5033350;28;20045;-75
2021/06/29 07:34:17;;;;;;;26.83;11.80;;;19.70;99.90;;;;;;5032693;28;20045;-75
2021/06/29 07:36:44;;;;;;;31.77;12.88;;;19.70;99.90;;;;;;5048062;28;20044;-78
2021/06/29 07:39:11;;;;;;;30.52;13.43;;;19.80;99.90;;;;;;5032851;28;20041;-77
2021/06/29 07:41:39;;;;;;;25.65;13.18;;;19.90;99.90;;;;;;5050370;28;20090;-77
2021/06/29 07:44:06;;;;;;;27.77;13.05;;;19.90;99.90;;;;;;5050810;28;20463;-77
2021/06/29 07:46:33;;;;;;;30.77;12.60;;;19.90;99.90;;;;;;5032630;28;20044;-77
2021/06/29 07:48:59;;;;;;;24.92;12.82;;;20.00;99.90;;;;;;5033147;28;20435;-77
2021/06/29 07:51:27;;;;;;;28.63;12.70;;;19.90;99.90;;;;;;5049038;28;20052;-75
2021/06/29 07:53:54;;;;;;;26.40;13.80;;;19.90;99.90;;;;;;5032934;28;20478;-75
2021/06/29 07:56:20;;;;;;;30.35;13.10;;;19.90;99.90;;;;;;5032062;28;20049;-75
2021/06/29 07:58:47;;;;;;;27.48;12.80;;;19.90;99.90;;;;;;5032403;28;20065;-76
2021/06/29 08:01:16;;;;;;;27.63;12.32;;;19.80;99.90;;;;;;5049769;28;20037;-76
2021/06/29 08:03:43;;;;;;;30.30;13.45;;;19.90;99.90;;;;;;5050024;28;20037;-76
2021/06/29 08:06:10;;;;;;;27.10;13.43;;;19.90;99.90;;;;;;5016185;28;20041;-76
2021/06/29 08:08:43;;;;;;;30.13;13.35;;;19.90;99.90;;;;;;5050538;28;20038;-85
2021/06/29 08:11:11;;;;;;;28.40;13.80;;;20.00;99.90;;;;;;5033167;28;20041;-85
2021/06/29 08:13:38;;;;;;;21.58;13.35;;;20.00;99.90;;;;;;5050858;28;20085;-84
2021/06/29 08:16:06;;;;;;;27.33;12.63;;;20.10;99.90;;;;;;5031928;28;20042;-85
2021/06/29 08:18:34;;;;;;;29.58;13.52;;;20.20;99.90;;;;;;5038021;28;20087;-85
2021/06/29 08:21:02;;;;;;;29.77;14.82;;;20.20;99.90;;;;;;5033529;28;20092;-86
2021/06/29 08:23:28;;;;;;;29.70;15.27;;;20.20;99.90;;;;;;5064696;28;20044;-85
2021/06/29 08:25:55;;;;;;;32.20;14.60;;;20.20;99.90;;;;;;5065117;28;20479;-85
2021/06/29 08:28:22;;;;;;;29.05;14.73;;;20.30;99.90;;;;;;5016044;28;20041;-85
2021/06/29 08:30:51;;;;;;;31.13;15.32;;;20.30;99.90;;;;;;5048997;28;20038;-86
2021/06/29 08:33:21;;;;;;;30.55;14.80;;;20.30;99.90;;;;;;5065166;28;20125;-85
2021/06/29 08:35:51;;;;;;;25.30;13.55;;;20.30;99.90;;;;;;5032703;28;20114;-88
2021/06/29 08:38:19;;;;;;;24.15;13.88;;;20.30;99.90;;;;;;5031966;28;20041;-85
2021/06/29 08:40:47;;;;;;;24.65;14.75;;;20.30;99.90;;;;;;5013169;28;20070;-85
2021/06/29 08:43:15;;;;;;;23.63;14.00;;;20.30;99.90;;;;;;4996538;28;20058;-86
2021/06/29 08:45:42;;;;;;;22.38;14.32;;;20.30;99.90;;;;;;5015629;28;20042;-85
2021/06/29 08:48:10;;;;;;;25.13;14.35;;;20.40;99.90;;;;;;5031552;28;20113;-85
2021/06/29 08:50:39;;;;;;;25.05;13.75;;;20.50;99.90;;;;;;5016368;28;20092;-85
2021/06/29 08:53:11;;;;;;;23.75;14.30;;;20.50;99.90;;;;;;5032229;28;20042;-85
2021/06/29 08:55:44;;;;;;;26.13;15.50;;;20.60;99.90;;;;;;5048231;28;20084;-85
2021/06/29 08:58:17;;;;;;;22.50;13.25;;;20.70;99.90;;;;;;5024605;28;20039;-86
2021/06/29 09:00:45;;;;;;;25.92;14.02;;;20.80;99.90;;;;;;5029699;28;20109;-86
2021/06/29 09:03:12;;;;;;;21.73;13.25;;;20.90;99.90;;;;;;4996370;28;20034;-85
2021/06/29 09:05:44;;;;;;;22.63;13.13;;;20.90;99.90;;;;;;5012178;28;20038;-86
2021/06/29 09:08:13;;;;;;;24.77;14.38;;;20.90;99.90;;;;;;5025528;28;20038;-86
2021/06/29 09:10:45;;;;;;;25.83;13.25;;;21.10;99.90;;;;;;5028560;28;20049;-86
2021/06/29 09:13:21;;;;;;;25.08;13.95;;;21.20;99.90;;;;;;5028624;28;20041;-87
2021/06/29 09:15:48;;;;;;;22.13;12.55;;;21.20;99.90;;;;;;5029599;28;20038;-88
2021/06/29 09:18:16;;;;;;;25.10;13.90;;;21.30;99.90;;;;;;5014212;28;20053;-84
2021/06/29 09:20:48;;;;;;;26.40;15.20;;;21.20;99.90;;;;;;5025718;28;20038;-84
2021/06/29 09:23:34;;;;;;;24.98;14.70;;;21.20;99.90;;;;;;5028173;28;20092;-85
2021/06/29 09:26:13;;;;;;;29.27;15.07;;;21.20;99.90;;;;;;5028601;28;20038;-85
2021/06/29 09:28:41;;;;;;;23.90;14.02;;;21.20;99.90;;;;;;5028258;28;20042;-84
2021/06/29 09:31:13;;;;;;;27.70;13.75;;;21.20;99.90;;;;;;5028051;28;20047;-87
2021/06/29 09:33:55;;;;;;;29.40;15.40;;;21.20;99.90;;;;;;5012366;28;20430;-86
2021/06/29 09:36:25;;;;;;;29.85;15.05;;;21.30;99.90;;;;;;5029263;28;20042;-85
2021/06/29 09:38:54;;;;;;;24.80;14.07;;;21.30;99.90;;;;;;5011247;28;20069;-85
2021/06/29 09:41:23;;;;;;;27.50;14.82;;;21.40;99.90;;;;;;4984182;28;20054;-86
2021/06/29 09:43:54;;;;;;;29.75;15.18;;;21.40;99.90;;;;;;5025812;28;20062;-85
2021/06/29 09:46:25;;;;;;;24.98;15.20;;;21.40;99.90;;;;;;5011328;28;20046;-86
2021/06/29 09:48:56;;;;;;;34.05;15.85;;;21.50;99.90;;;;;;5012628;28;20039;-86
2021/06/29 09:51:28;;;;;;;24.73;14.75;;;21.50;99.90;;;;;;4996116;28;20053;-85
2021/06/29 09:54:00;;;;;;;26.58;16.50;;;21.50;99.90;;;;;;4997781;28;20050;-87
2021/06/29 09:56:36;;;;;;;27.88;15.80;;;21.50;99.90;;;;;;5011390;28;20042;-80
2021/06/29 09:59:03;;;;;;;;;;;21.50;99.90;;;;;;5029879;28;20038;-84
2021/06/29 10:01:30;;;;;;;29.58;15.73;;;21.50;99.90;;;;;;5011952;28;20327;-84
2021/06/29 10:04:01;;;;;;;27.80;15.25;;;21.50;99.90;;;;;;5011699;28;20117;-85
2021/06/29 10:06:30;;;;;;;32.30;15.73;;;21.50;99.90;;;;;;5028103;28;20476;-78
2021/06/29 10:09:10;;;;;;;25.88;15.02;;;21.50;99.90;;;;;;5010830;28;20463;-83
2021/06/29 10:11:54;;;;;;;25.98;15.55;;;21.50;99.90;;;;;;5028104;28;20048;-83
2021/06/29 10:14:21;;;;;;;24.48;14.15;;;21.50;99.90;;;;;;5032319;28;20041;-79
2021/06/29 10:16:55;;;;;;;23.88;14.23;;;21.50;99.90;;;;;;4986953;28;20053;-77
2021/06/29 10:21:56;;;;;;;24.67;14.18;;;21.50;99.90;;;;;;5040117;28;20038;-76
2021/06/29 10:24:26;;;;;;;25.17;13.55;;;21.60;99.90;;;;;;5008783;28;20034;-76
2021/06/29 10:26:56;;;;;;;21.85;14.52;;;21.50;99.90;;;;;;5029984;28;20057;-77
2021/06/29 10:29:25;;;;;;;26.98;14.57;;;21.50;99.90;;;;;;5022932;28;20057;-77
2021/06/29 10:31:54;;;;;;;25.63;14.73;;;21.40;99.90;;;;;;5011272;28;20121;-80
2021/06/29 10:34:24;;;;;;;28.38;14.85;;;21.40;99.90;;;;;;5028535;28;20068;-78
2021/06/29 10:36:53;;;;;;;26.08;13.77;;;21.30;99.90;;;;;;5010974;28;20049;-78
2021/06/29 10:39:24;;;;;;;27.10;14.00;;;21.30;99.90;;;;;;5026975;28;20038;-80
2021/06/29 10:42:13;;;;;;;24.88;12.90;;;21.40;99.90;;;;;;5043777;28;20050;-80
2021/06/29 10:44:47;;;;;;;27.08;13.38;;;21.30;99.90;;;;;;5030127;28;20042;-77
2021/06/29 10:47:30;;;;;;;25.90;14.05;;;21.30;99.90;;;;;;5031239;28;20065;-82
2021/06/29 10:50:01;;;;;;;25.85;13.85;;;21.30;99.90;;;;;;5047631;28;20038;-87
2021/06/29 10:52:28;;;;;;;27.90;13.32;;;21.40;99.90;;;;;;5030523;28;20540;-89
2021/06/29 10:55:06;;;;;;;27.10;13.05;;;21.50;99.90;;;;;;5031733;28;20401;-92
2021/06/29 10:57:43;;;;;;;25.65;13.10;;;21.60;99.90;;;;;;5031364;28;20041;-89
2021/06/29 11:00:32;;;;;;;37.50;15.35;;;21.60;99.90;;;;;;5048766;28;20037;-90
2021/06/29 11:02:58;;;;;;;29.42;13.55;;;21.50;99.90;;;;;;5048498;28;20058;-88
2021/06/29 11:05:36;;;;;;;34.17;12.88;;;21.40;99.90;;;;;;5031028;28;20065;-89
2021/06/29 11:08:15;;;;;;;29.60;13.43;;;21.30;99.90;;;;;;5032094;28;20102;-90
2021/06/29 11:10:48;;;;;;;27.23;13.63;;;21.30;99.90;;;;;;5035118;28;20036;-90
2021/06/29 11:13:38;;;;;;;28.42;15.32;;;21.20;99.90;;;;;;5034164;28;20124;-89
2021/06/29 11:16:05;;;;;;;30.33;14.43;;;21.00;99.90;;;;;;5032332;28;20112;-90
2021/06/29 11:18:39;;;;;;;28.92;14.40;;;21.00;99.90;;;;;;5032718;28;20490;-89
2021/06/29 11:21:27;;;;;;;33.95;14.20;;;21.00;99.90;;;;;;5032894;28;20038;-89
2021/06/29 11:23:54;;;;;;;34.60;15.60;;;21.00;99.90;;;;;;5017724;28;20048;-89
2021/06/29 11:26:24;;;;;;;30.70;14.70;;;21.00;99.90;;;;;;4998891;28;20545;-90
2021/06/29 11:28:59;;;;;;;30.00;15.25;;;20.80;99.90;;;;;;4983928;28;20487;-89
2021/06/29 11:31:34;;;;;;;30.73;15.02;;;20.80;99.90;;;;;;5031441;28;20037;-88
2021/06/29 11:34:07;;;;;;;27.33;13.82;;;20.80;99.90;;;;;;5016251;28;20100;-88
2021/06/29 11:36:37;;;;;;;32.20;15.07;;;20.80;99.90;;;;;;5015845;28;20038;-86
2021/06/29 11:39:16;;;;;;;32.45;14.65;;;20.70;99.90;;;;;;5030161;28;20042;-86
2021/06/29 11:42:04;;;;;;;26.05;13.77;;;20.70;99.90;;;;;;5010626;28;20109;-86
2021/06/29 11:44:31;;;;;;;28.30;13.75;;;20.80;99.90;;;;;;5026570;28;20053;-86
2021/06/29 11:47:03;;;;;;;29.33;13.45;;;20.80;99.90;;;;;;5026836;28;20066;-88
2021/06/29 11:49:30;;;;;;;21.88;12.27;;;20.80;99.90;;;;;;5030336;28;20053;-90
2021/06/29 11:52:06;;;;;;;26.52;13.05;;;20.90;99.90;;;;;;5031235;28;20521;-91
2021/06/29 11:54:55;;;;;;;26.45;13.02;;;20.90;99.90;;;;;;5031637;28;20034;-89
2021/06/29 11:57:41;;;;;;;23.38;13.05;;;20.90;99.90;;;;;;5001866;28;20076;-89
2021/06/29 12:00:46;;;;;;;29.98;14.07;;;21.00;99.90;;;;;;5016153;28;20038;-93
2021/06/29 12:03:16;;;;;;;24.67;13.60;;;20.90;99.90;;;;;;5035316;28;20044;-90
2021/06/29 12:05:43;;;;;;;21.65;12.82;;;20.90;99.90;;;;;;5019461;28;20041;-91
2021/06/29 12:08:12;;;;;;;23.38;12.32;;;21.00;99.90;;;;;;5017962;28;20509;-89
2021/06/29 12:10:44;;;;;;;22.65;12.93;;;21.00;99.90;;;;;;5036270;28;20053;-93
2021/06/29 12:13:16;;;;;;;34.28;13.80;;;21.20;99.90;;;;;;5037979;28;20061;-78
2021/06/29 12:15:45;;;;;;;26.15;12.80;;;21.20;99.90;;;;;;5065513;28;20571;-79
2021/06/29 12:18:21;;;;;;;26.30;12.52;;;21.20;99.90;;;;;;5053667;28;20038;-84
2021/06/29 12:24:36;;;;;;;25.17;12.95;;;21.20;99.90;;;;;;5015735;28;20040;-95
2021/06/29 12:27:19;;;;;;;27.55;12.50;;;21.10;99.90;;;;;;5039130;28;20049;-95
2021/06/29 12:29:46;;;;;;;23.80;13.23;;;21.10;99.90;;;;;;5041963;28;20049;-91
2021/06/29 12:32:25;;;;;;;25.63;13.88;;;21.10;99.90;;;;;;5035392;28;20108;-93
2021/06/29 12:35:19;;;;;;;27.50;14.88;;;21.00;99.90;;;;;;5040798;28;20049;-96
2021/06/29 12:37:54;;;;;;;24.70;14.48;;;21.00;99.90;;;;;;5038705;28;20049;-94
2021/06/29 12:40:28;;;;;;;25.70;14.60;;;20.90;99.90;;;;;;5035027;28;20045;-92
2021/06/29 12:43:28;;;;;;;29.10;15.15;;;20.90;99.90;;;;;;5035176;28;20056;-93
2021/06/29 12:46:16;;;;;;;26.90;15.02;;;20.90;99.90;;;;;;5020694;28;20080;-92
2021/06/29 12:49:10;;;;;;;28.98;14.88;;;20.80;99.90;;;;;;5034918;28;20056;-94
2021/06/29 12:51:45;;;;;;;30.83;14.70;;;20.90;99.90;;;;;;5035863;28;20108;-93
2021/06/29 12:54:24;;;;;;;31.85;15.27;;;20.80;99.90;;;;;;5035205;28;20045;-94
2021/06/29 12:57:08;;;;;;;32.10;14.45;;;20.90;99.90;;;;;;5020933;28;20048;-92
2021/06/29 12:59:39;;;;;;;29.92;15.65;;;20.70;99.90;;;;;;5035053;28;20057;-94